Historyczne dane pomiarowe

Dodano dane terminowe – wersja testowa.

Dane z okresu 1951-2019

Wersja bazy: 1.34 [2019-03-16, lista zmian], aktualizacja planowana na 2019-04-15

Dane meteo z obszaru Polski uzyskane na podstawie danych udostępnionych przez Instytut Meteorologii i Gospodarki Wodnej – Państwowy Instytut Badawczy.

 

Wybierz Datę:    

       

TemperaturaWilgotnośćWiatrCiśnienieOpadyŚniegCzas trwania zjawisk
 Stacja t tx tn tng RH VA  wxwx mslp ppp RRR   cm mm wxwxwxwxwxwxwx
1961-08-14 14.3 19.6 6.9 2.2-- 4.7 0.3---- 0.7------------
1961-08-13 13.8 17.9 11.9 9.7-- 4.3 1.7---- 0.0------------
1961-08-12 16.2 21.0 13.3 10.1-- 6.0 0.7---- 0.0------------
1961-08-11 16.4 20.3 14.6 15.0-- 5.3 1.0---- 8.6------------
1961-08-10 20.5 27.0 16.4 15.3-- 5.3 1.0---- 0.8------------
1961-08-09 20.1 25.8 13.6 8.9-- 5.7 0.3---- 0.0------------
1961-08-08 18.1 22.5 6.5 2.3-- 2.0 1.0---- 0.0------------
1961-08-07 17.5 21.9 15.5 13.5-- 7.0 0.7---- 1.5------------
1961-08-06 21.3 30.2 14.7 9.3-- 1.3 1.3---- 7.0------------
1961-08-05 18.2 24.3 14.2 11.7-- 4.3 0.7---- 0.0------------
1961-08-04 14.5 17.5 5.6 1.0-- 8.0 0.7---- 0.4------------
1961-08-03 13.4 18.8 10.7 6.8-- 4.7 2.0---- 0.1------------
1961-08-02 14.7 21.0 8.8 3.8-- 6.0 0.0---- 3.7------------
1961-08-01 14.0 20.7 11.4 10.4-- 4.0 3.0---- 0.1------------
1961-07-31 13.5 15.3 12.7 11.3-- 8.0 1.7---- 22.1------------
1961-07-30 14.2 17.8 9.2 4.2-- 7.7 1.3---- 6.2------------
1961-07-29 13.3 18.4 11.3 9.2-- 5.7 1.3---- 0.0------------
1961-07-28 14.9 19.4 13.3 10.1-- 8.0 1.3---- 5.5------------
1961-07-27 19.2 24.7 14.4 9.0-- 4.7 1.3---- 0.8------------
1961-07-26 18.1 24.1 11.4 5.6-- 5.0 2.3---- 0.0------------
1961-07-25 13.6 17.5 11.6 10.3-- 7.7 0.0---- 0.0------------
1961-07-24 13.4 16.4 11.5 6.5-- 7.7 1.3---- 0.0------------
1961-07-23 13.3 17.1 11.3 7.9-- 6.3 1.0---- 0.4------------
1961-07-22 15.3 18.3 13.8 12.8-- 7.3 1.3---- 0.0------------
1961-07-21 14.7 16.4 13.4 11.4-- 8.0 3.0---- 1.8------------
1961-07-20 15.1 20.3 7.6 4.3-- 7.3 1.7---- 1.9------------
1961-07-19 13.8 18.9 10.2 6.4-- 6.7 0.7---- 1.7------------
1961-07-18 14.4 20.3 11.9 11.6-- 6.7 2.7---- 0.2------------
1961-07-17 13.6 17.1 7.8 3.5-- 6.3 0.3---- 7.0------------
1961-07-16 15.4 22.5 12.1 12.8-- 4.0 0.3---- 0.0------------
1961-07-15 18.0 23.5 12.9 9.5-- 6.0 2.0---- 1.1------------
1961-07-14 15.3 20.4 13.2 11.2-- 7.7 2.7---- 4.5------------
1961-07-13 18.7 25.6 15.3 11.0-- 6.0 2.3---- 4.6------------
1961-07-12 20.6 26.7 13.6 9.3-- 3.7 0.3---- 0.0------------
1961-07-11 16.7 21.6 8.2 3.3-- 6.3 1.0---- 0.0------------
1961-07-10 13.1 17.0 8.8 4.1-- 6.7 2.0---- 0.2------------
1961-07-09 13.4 18.3 11.2 6.0-- 6.7 1.7---- 8.1------------
1961-07-08 16.2 22.6 6.9 2.2-- 7.0 1.0---- 0.9------------
1961-07-07 12.5 17.5 8.7 6.1-- 6.0 2.0---- 0.0------------
1961-07-06 12.1 15.6 6.9 2.6-- 7.3 3.3---- 6.8------------
1961-07-05 11.9 16.9 9.3 8.4-- 5.0 2.3---- 1.8------------
1961-07-04 16.7 22.3 14.1 8.5-- 8.0 1.0---- 4.8------------
1961-07-03 24.3 32.7 13.3 7.4-- 4.0 1.0---- 0.0------------
1961-07-02 23.3 30.6 11.5 6.2-- 0.0 0.7---- 0.0------------
1961-07-01 21.6 28.4 12.1 5.7-- 0.0 0.7---- 0.0------------
1961-06-30 21.6 28.4 12.1 5.7-- 0.0 0.7---- 0.0------------
1961-06-29 16.6 22.7 8.8 3.7-- 0.7 1.3---- 0.0------------
1961-06-28 15.4 20.1 12.7 11.7-- 5.0 2.7---- 0.0------------
1961-06-27 22.1 27.5 16.3 10.2-- 5.3 2.0---- 0.9------------
1961-06-26 22.3 29.0 12.1 6.9-- 1.7 1.0---- 0.0------------
1961-06-25 22.2 29.8 12.1 7.8-- 0.0 0.7---- 0.0------------
1961-06-24 18.8 25.3 10.9 7.2-- 5.3 2.3---- 0.0------------
1961-06-23 17.1 22.3 14.6 14.6-- 2.7 2.7---- 0.0------------
1961-06-22 18.1 23.2 4.7 -0.2-- 2.7 1.0---- 2.4------------
1961-06-21 15.2 22.3 7.1 1.4-- 3.7 0.7---- 1.8------------
1961-06-20 14.2 20.0 7.3 3.4-- 0.3 2.0---- 0.0------------
1961-06-19 15.8 22.0 13.5 13.5-- 2.7 1.0---- 0.0------------
1961-06-18 21.4 27.8 11.3 6.3-- 1.0 1.7---- 0.0------------
1961-06-17 17.5 24.0 6.7 1.8-- 3.0 0.7---- 0.0------------
1961-06-16 13.3 20.1 5.3 1.1-- 3.3 1.7---- 0.0------------
313.6 ms

 

Źródłem pochodzenia danych jest Instytut Meteorologii i Gospodarki Wodnej – Państwowy Instytut Badawczy. Dane Instytutu Meteorologii i Gospodarki Wodnej – Państwowego Instytutu Badawczego zostały przetworzone.

Dane źródłowe można odnaleźć na stronie https://dane.imgw.pl